Time;durP1;ratioP1;P1;durP2;ratioP2;P2;SDS_P1;SDS_P2;PMS_P1;PMS_P2;Temp;Humidity;BMP_temperature;BMP_pressure;BME280_temperature;BME280_humidity;BME280_pressure;Samples;Min_cycle;Max_cycle;Signal;HPM_P1;HPM_P2
2021/11/12 00:02:50;;;;;;;44.20;20.90;;;;;;;10.48;80.06;102325.69;5044227;28;20492;-66
2021/11/12 00:13:29;;;;;;;42.00;19.60;;;;;;;10.43;79.66;102320.31;5044922;28;20045;-65
2021/11/12 00:15:58;;;;;;;42.25;20.75;;;;;;;10.47;79.22;102324.81;5044016;28;20030;-67
2021/11/12 00:18:27;;;;;;;40.78;21.23;;;;;;;10.44;79.59;102313.34;5044546;28;20033;-66
2021/11/12 00:20:54;;;;;;;37.13;19.88;;;;;;;10.47;79.47;102310.75;5044570;28;20106;-66
2021/11/12 00:23:21;;;;;;;40.03;20.05;;;;;;;10.41;78.66;102295.75;5044891;28;20050;-66
2021/11/12 00:25:47;;;;;;;43.88;21.90;;;;;;;10.40;78.97;102303.63;5044605;28;20460;-66
2021/11/12 00:28:16;;;;;;;39.05;19.83;;;;;;;10.42;78.92;102300.16;5043956;28;20022;-66
2021/11/12 00:38:33;;;;;;;37.60;20.02;;;;;;;10.40;78.49;102279.97;5043881;28;20041;-68
2021/11/12 00:41:11;;;;;;;40.85;19.60;;;;;;;10.38;79.42;102290.44;5042900;28;20041;-67
2021/11/12 00:43:49;;;;;;;39.63;19.90;;;;;;;10.43;77.90;102280.91;5037120;28;20040;-67
2021/11/12 00:48:55;;;;;;;44.20;20.65;;;;;;;10.43;78.06;102285.28;5043781;28;20152;-67
2021/11/12 00:51:26;;;;;;;45.17;20.48;;;;;;;10.39;78.37;102271.19;5044867;28;20112;-68
2021/11/12 00:56:28;;;;;;;40.75;20.15;;;;;;;10.38;78.76;102277.31;5042095;28;20038;-67
2021/11/12 00:58:56;;;;;;;51.47;22.70;;;;;;;10.40;78.76;102269.47;5043190;28;20565;-65
2021/11/12 01:01:23;;;;;;;51.88;22.85;;;;;;;10.37;78.70;102267.63;5044299;28;20025;-67
2021/11/12 01:03:50;;;;;;;52.67;22.52;;;;;;;10.35;78.71;102269.34;5043823;28;20041;-67
2021/11/12 01:06:15;;;;;;;57.75;23.52;;;;;;;10.31;79.04;102268.38;5044366;28;20048;-67
2021/11/12 01:08:42;;;;;;;54.08;22.27;;;;;;;10.30;79.45;102273.56;5043034;28;20029;-67
2021/11/12 01:11:08;;;;;;;59.45;22.90;;;;;;;10.33;79.00;102260.53;5043393;28;20053;-67
2021/11/12 01:13:35;;;;;;;64.25;24.05;;;;;;;10.32;79.45;102257.03;5041659;28;20036;-65
2021/11/12 01:16:01;;;;;;;66.97;23.67;;;;;;;10.30;79.35;102252.56;5043796;28;20046;-66
2021/11/12 01:18:27;;;;;;;62.88;23.05;;;;;;;10.28;79.35;102257.78;5043738;28;20680;-66
2021/11/12 01:20:53;;;;;;;64.43;24.17;;;;;;;10.28;79.55;102251.63;5051700;28;20055;-67
2021/11/12 01:23:19;;;;;;;64.47;23.90;;;;;;;10.28;79.36;102243.75;5046366;28;20045;-67
2021/11/12 01:25:45;;;;;;;67.93;24.48;;;;;;;10.23;80.24;102240.16;5043088;28;20033;-67
2021/11/12 01:28:11;;;;;;;71.95;23.83;;;;;;;10.22;79.37;102241.88;5043247;28;20187;-68
2021/11/12 01:30:37;;;;;;;63.10;22.33;;;;;;;10.20;78.86;102240.06;5043526;28;20041;-67
2021/11/12 01:33:03;;;;;;;57.25;22.27;;;;;;;10.19;79.57;102247.09;5042944;28;20092;-67
2021/11/12 01:35:29;;;;;;;64.55;21.70;;;;;;;10.20;79.03;102248.84;5043637;28;20761;-68
2021/11/12 01:37:55;;;;;;;59.40;20.58;;;;;;;10.22;79.27;102244.50;5049856;28;20053;-67
2021/11/12 01:40:22;;;;;;;52.25;20.15;;;;;;;10.23;78.34;102248.91;5042373;28;20037;-67
2021/11/12 01:43:24;;;;;;;54.67;19.38;;;;;;;10.22;78.37;102241.00;5043811;28;20040;-68
2021/11/12 01:53:39;;;;;;;43.47;17.95;;;;;;;10.26;76.77;102241.09;5042695;28;20065;-66
2021/11/12 01:59:05;;;;;;;38.80;17.25;;;;;;;10.27;76.94;102235.00;5043141;28;20049;-67
2021/11/12 02:01:57;;;;;;;37.35;15.85;;;;;;;10.27;76.29;102232.38;5043283;28;20034;-66
2021/11/12 02:04:25;;;;;;;33.92;14.68;;;;;;;10.29;76.53;102235.91;5042645;28;20093;-67
2021/11/12 02:06:51;;;;;;;28.90;14.65;;;;;;;10.32;75.59;102241.28;5031167;28;20489;-68
2021/11/12 02:09:19;;;;;;;35.35;14.80;;;;;;;10.34;75.45;102231.69;5043119;28;20033;-66
2021/11/12 02:11:47;;;;;;;30.33;14.52;;;;;;;10.36;75.23;102225.56;5042698;28;20030;-67
2021/11/12 02:14:16;;;;;;;27.35;13.65;;;;;;;10.33;75.24;102213.25;5042557;28;20381;-67
2021/11/12 02:16:46;;;;;;;23.13;12.67;;;;;;;10.29;74.62;102219.28;5043130;28;20196;-67
2021/11/12 02:19:13;;;;;;;21.58;12.07;;;;;;;10.27;75.02;102218.34;5041990;28;20284;-66
2021/11/12 02:21:53;;;;;;;27.70;12.30;;;;;;;10.27;75.73;102210.47;5043069;28;20418;-67
2021/11/12 02:24:19;;;;;;;23.58;11.63;;;;;;;10.27;74.47;102210.47;5042725;28;20029;-66
2021/11/12 02:26:48;;;;;;;25.52;12.32;;;;;;;10.26;75.56;102193.78;5043746;28;20791;-67
2021/11/12 02:29:16;;;;;;;22.48;12.57;;;;;;;10.27;75.93;102171.06;5041952;28;20044;-66
2021/11/12 02:31:41;;;;;;;25.55;11.93;;;;;;;10.28;76.40;102170.19;5043375;28;20166;-67
2021/11/12 02:34:11;;;;;;;26.80;13.60;;;;;;;10.26;76.36;102179.78;5042785;28;20112;-67
2021/11/12 02:36:39;;;;;;;28.45;12.75;;;;;;;10.23;76.46;102185.88;5042755;28;20033;-67
2021/11/12 02:39:07;;;;;;;21.45;13.13;;;;;;;10.17;76.30;102180.50;5043915;28;20030;-65
2021/11/12 02:41:32;;;;;;;31.17;14.07;;;;;;;10.15;76.95;102193.59;5046007;28;20781;-65
2021/11/12 02:43:59;;;;;;;28.90;13.77;;;;;;;10.12;76.55;102182.13;5047084;28;20139;-65
2021/11/12 02:46:25;;;;;;;32.00;15.07;;;;;;;10.08;76.64;102177.66;5046256;28;20034;-65
2021/11/12 02:48:53;;;;;;;27.60;14.75;;;;;;;10.07;78.05;102163.63;5046504;28;20087;-65
2021/11/12 02:51:25;;;;;;;30.38;15.23;;;;;;;10.04;76.94;102160.06;5046021;28;20021;-65
2021/11/12 02:53:51;;;;;;;30.05;15.20;;;;;;;10.04;77.05;102160.94;5046371;28;20034;-66
2021/11/12 02:56:30;;;;;;;33.42;16.10;;;;;;;10.02;77.56;102148.63;5046509;28;20112;-66
2021/11/12 02:59:03;;;;;;;29.60;16.60;;;;;;;10.00;77.89;102151.25;5043693;28;20032;-66
2021/11/12 03:01:33;;;;;;;31.50;16.90;;;;;;;9.99;77.37;102148.59;5043319;28;20022;-65
2021/11/12 03:03:59;;;;;;;32.33;17.45;;;;;;;9.95;77.75;102145.00;5045707;28;20025;-66
2021/11/12 03:06:25;;;;;;;31.30;16.33;;;;;;;9.93;77.81;102146.72;5045983;28;20033;-66
2021/11/12 03:08:51;;;;;;;30.98;16.92;;;;;;;9.92;77.47;102127.44;5045448;28;20044;-66
2021/11/12 03:11:18;;;;;;;34.35;17.52;;;;;;;9.93;78.02;102123.06;5045642;28;20033;-66
2021/11/12 03:13:45;;;;;;;36.95;17.52;;;;;;;9.89;77.43;102126.50;5046123;28;20237;-66
2021/11/12 03:16:15;;;;;;;27.73;16.55;;;;;;;9.85;77.69;102120.28;5044628;28;20038;-66
2021/11/12 03:18:41;;;;;;;35.70;16.83;;;;;;;9.90;78.14;102121.25;5045353;28;20037;-65
2021/11/12 03:21:08;;;;;;;33.90;16.75;;;;;;;9.92;77.79;102118.66;5047008;28;20040;-66
2021/11/12 03:23:43;;;;;;;30.85;17.42;;;;;;;9.86;77.10;102110.66;5045716;28;20091;-66
2021/11/12 03:56:27;;;;;;;32.42;18.55;;;;;;;9.75;77.18;102057.91;5044819;28;20065;-66
2021/11/12 05:11:42;;;;;;;28.20;17.42;;;;;;;9.12;76.90;101998.84;5042762;28;20061;-66
2021/11/12 05:44:18;;;;;;;39.05;20.52;;;;;;;8.48;77.02;101977.22;5043608;28;20184;-65
2021/11/12 05:52:20;;;;;;;44.35;21.33;;;;;;;8.20;78.34;101934.56;5041845;28;20049;-65
2021/11/12 05:57:30;;;;;;;46.55;22.00;;;;;;;8.09;78.90;101955.25;5038126;28;20033;-65
2021/11/12 05:59:55;;;;;;;43.63;23.10;;;;;;;8.04;79.54;101950.75;5042814;28;20493;-65
2021/11/12 06:02:21;;;;;;;41.97;23.00;;;;;;;7.98;80.05;101943.63;5043308;28;20053;-65
2021/11/12 06:04:47;;;;;;;49.30;23.33;;;;;;;7.84;79.53;101945.84;5043735;28;20397;-65
2021/11/12 06:07:12;;;;;;;48.10;23.08;;;;;;;7.74;80.63;101931.63;5043065;28;20029;-65
2021/11/12 06:09:37;;;;;;;48.17;25.33;;;;;;;7.69;80.42;101930.59;5036380;28;20042;-64
2021/11/12 06:12:04;;;;;;;44.47;24.02;;;;;;;7.66;80.33;101916.59;5044325;28;20021;-65
2021/11/12 06:14:29;;;;;;;49.10;24.40;;;;;;;7.65;80.60;101920.91;5047179;28;20107;-65
2021/11/12 06:16:55;;;;;;;50.97;24.17;;;;;;;7.60;81.14;101909.47;5047152;28;20033;-65
2021/11/12 06:19:22;;;;;;;45.58;24.48;;;;;;;7.56;81.01;101907.56;5046796;28;20034;-65
2021/11/12 06:21:48;;;;;;;49.67;25.35;;;;;;;7.53;81.30;101908.38;5047379;28;20053;-66
2021/11/12 06:24:14;;;;;;;50.78;25.30;;;;;;;7.51;81.41;101909.19;5046813;28;20079;-66
2021/11/12 06:26:40;;;;;;;51.13;27.08;;;;;;;7.46;81.92;101916.03;5039210;28;20052;-66
2021/11/12 06:29:07;;;;;;;50.95;26.60;;;;;;;7.44;81.09;101922.94;5043694;28;20038;-66
2021/11/12 06:31:32;;;;;;;52.90;25.10;;;;;;;7.40;81.06;101927.19;5045508;28;20036;-65
2021/11/12 06:33:58;;;;;;;48.63;25.48;;;;;;;7.37;82.08;101927.09;5043880;28;20072;-66
2021/11/12 06:36:25;;;;;;;50.58;26.52;;;;;;;7.31;81.81;101924.31;5045774;28;20026;-66
2021/11/12 06:38:51;;;;;;;49.58;26.30;;;;;;;7.26;81.83;101923.28;5047900;28;20075;-65
2021/11/12 06:41:27;;;;;;;54.88;27.65;;;;;;;7.20;82.83;101927.50;5045759;28;20038;-66
2021/11/12 06:49:29;;;;;;;54.22;26.52;;;;;;;7.03;83.06;101908.72;5040433;28;20037;-67
2021/11/12 06:51:55;;;;;;;59.30;29.15;;;;;;;7.03;83.03;101906.09;5044258;28;20048;-64
2021/11/12 06:54:21;;;;;;;59.38;28.25;;;;;;;6.98;82.97;101901.56;5024324;28;20069;-66
2021/11/12 06:56:47;;;;;;;58.63;28.67;;;;;;;6.93;83.47;101908.38;5045836;28;20025;-67
2021/11/12 06:59:13;;;;;;;59.80;29.25;;;;;;;6.88;83.40;101902.13;5044094;28;20042;-66
2021/11/12 07:01:39;;;;;;;66.88;30.30;;;;;;;6.91;83.71;101908.31;5044207;28;20552;-66
2021/11/12 07:04:04;;;;;;;68.82;31.15;;;;;;;6.86;83.82;101909.03;5061481;28;20037;-66
2021/11/12 07:06:30;;;;;;;68.57;32.35;;;;;;;6.88;84.57;101907.34;5045670;28;20049;-66
2021/11/12 07:08:56;;;;;;;61.65;30.92;;;;;;;6.90;84.38;101905.66;5045884;28;20091;-66
2021/11/12 07:11:22;;;;;;;69.45;31.02;;;;;;;6.90;84.61;101900.44;5044573;28;20072;-66
2021/11/12 07:13:49;;;;;;;73.88;33.40;;;;;;;6.89;84.35;101903.91;5029390;28;20048;-66
2021/11/12 07:16:16;;;;;;;70.57;31.52;;;;;;;6.88;83.68;101900.41;5045516;28;20475;-65
2021/11/12 07:18:42;;;;;;;74.28;31.48;;;;;;;6.92;83.71;101898.75;5048404;28;20651;-65
2021/11/12 07:21:08;;;;;;;69.15;32.80;;;;;;;6.84;83.40;101890.69;5043481;28;20037;-65
2021/11/12 07:23:33;;;;;;;75.13;32.03;;;;;;;6.89;84.23;101881.28;5051575;28;20068;-65
2021/11/12 07:25:59;;;;;;;72.65;32.70;;;;;;;6.88;83.78;101873.38;5045127;28;20517;-65
2021/11/12 07:28:25;;;;;;;69.32;32.00;;;;;;;6.89;84.28;101878.66;5044708;28;20026;-65
2021/11/12 07:30:55;;;;;;;68.68;31.63;;;;;;;6.96;84.06;101874.50;5045368;28;20025;-64
2021/11/12 07:33:22;;;;;;;65.95;30.98;;;;;;;6.98;84.19;101876.31;5044934;28;20030;-66
2021/11/12 07:35:50;;;;;;;70.40;31.35;;;;;;;6.95;84.25;101863.16;5045266;28;20030;-65
2021/11/12 07:38:24;;;;;;;72.90;32.65;;;;;;;6.93;84.31;101864.84;5042154;28;20040;-65
2021/11/12 07:48:36;;;;;;;59.72;29.00;;;;;;;7.08;83.47;101851.34;5041277;28;20044;-66
2021/11/12 07:51:02;;;;;;;67.50;30.27;;;;;;;7.12;83.70;101850.56;5042473;28;20037;-65
2021/11/12 07:53:27;;;;;;;66.40;29.63;;;;;;;7.14;83.69;101854.13;5043924;28;20017;-65
2021/11/12 07:55:56;;;;;;;68.20;30.95;;;;;;;7.21;83.11;101853.47;5048891;28;20038;-66
2021/11/12 07:58:22;;;;;;;68.95;31.08;;;;;;;7.24;82.87;101850.06;5045299;28;20051;-66
2021/11/12 08:00:47;;;;;;;66.57;30.10;;;;;;;7.30;84.06;101859.81;5044420;28;20160;-66
2021/11/12 08:03:14;;;;;;;63.63;30.77;;;;;;;7.34;82.27;101849.47;5057676;28;20053;-66
2021/11/12 08:05:45;;;;;;;62.00;29.58;;;;;;;7.36;82.13;101841.66;5039849;28;20054;-65
2021/11/12 08:08:13;;;;;;;64.00;30.17;;;;;;;7.36;82.59;101837.31;5044604;28;20075;-64
2021/11/12 08:11:03;;;;;;;60.35;29.73;;;;;;;7.40;82.27;101840.91;5043392;28;20025;-65
2021/11/12 08:13:34;;;;;;;59.92;27.52;;;;;;;7.56;83.76;101835.25;5043976;28;20037;-64
2021/11/12 08:21:17;;;;;;;61.65;29.48;;;;;;;7.86;80.48;101833.38;5040422;28;20043;-65
2021/11/12 08:23:54;;;;;;;60.17;28.63;;;;;;;7.94;80.57;101824.88;5041576;28;20713;-61
2021/11/12 08:34:28;;;;;;;55.72;30.17;;;;;;;7.84;80.36;101799.31;5013462;28;20100;-65
2021/11/12 08:37:33;;;;;;;57.70;30.13;;;;;;;7.84;81.70;101811.50;5012385;28;20050;-65
2021/11/12 08:42:42;;;;;;;56.40;29.73;;;;;;;7.83;80.80;101800.19;5008059;28;20567;-65
2021/11/12 08:45:20;;;;;;;54.70;29.13;;;;;;;7.92;80.52;101779.47;5002596;28;20161;-64
2021/11/12 08:47:51;;;;;;;53.55;27.17;;;;;;;8.05;80.40;101791.09;5005758;28;20277;-66
2021/11/12 08:50:18;;;;;;;54.70;28.25;;;;;;;8.04;79.54;101783.22;5006854;28;20030;-65
2021/11/12 08:52:46;;;;;;;50.95;27.98;;;;;;;8.12;78.69;101798.25;5017259;28;20030;-65
2021/11/12 08:55:12;;;;;;;56.88;29.20;;;;;;;8.11;79.40;101798.19;5007599;28;20042;-65
2021/11/12 08:57:38;;;;;;;53.72;27.63;;;;;;;8.24;79.32;101799.38;5002511;28;20030;-65
2021/11/12 09:00:06;;;;;;;52.40;28.17;;;;;;;8.24;78.52;101791.53;5013586;28;20037;-65
2021/11/12 09:02:31;;;;;;;62.47;29.58;;;;;;;8.21;78.25;101781.88;5012998;28;20046;-64
2021/11/12 09:04:57;;;;;;;54.42;28.50;;;;;;;8.19;77.96;101784.47;5016667;28;20037;-65
2021/11/12 09:07:23;;;;;;;67.68;30.25;;;;;;;8.25;78.49;101775.00;5010069;28;20038;-65
2021/11/12 09:09:54;;;;;;;57.53;29.15;;;;;;;8.26;78.49;101776.75;5028983;28;20056;-65
2021/11/12 09:12:22;;;;;;;59.17;30.48;;;;;;;8.34;77.30;101778.69;5043002;28;20052;-65
2021/11/12 09:14:49;;;;;;;49.17;27.48;;;;;;;8.47;77.26;101764.16;5043433;28;20045;-64
2021/11/12 09:17:17;;;;;;;56.67;29.52;;;;;;;8.49;78.01;101757.22;5043124;28;20025;-64
2021/11/12 09:19:48;;;;;;;51.85;27.85;;;;;;;8.58;77.12;101759.13;5043447;28;20059;-65
2021/11/12 09:22:15;;;;;;;55.97;29.42;;;;;;;8.56;76.35;101753.91;5037447;28;20056;-66
2021/11/12 09:24:43;;;;;;;48.55;26.08;;;;;;;8.71;76.50;101749.81;5042683;28;20067;-65
2021/11/12 09:27:09;;;;;;;45.65;26.25;;;;;;;8.77;77.52;101756.06;5043094;28;20434;-65
2021/11/12 09:29:35;;;;;;;50.47;28.48;;;;;;;8.83;76.49;101757.03;5042950;28;20037;-65
2021/11/12 09:32:00;;;;;;;45.38;25.13;;;;;;;9.03;77.28;101746.94;5043413;28;20477;-65
2021/11/12 09:34:26;;;;;;;55.20;27.48;;;;;;;9.11;74.85;101747.97;5042558;28;20074;-64
2021/11/12 09:36:52;;;;;;;51.03;27.45;;;;;;;9.08;74.73;101745.31;5040677;28;20508;-66
2021/11/12 09:39:18;;;;;;;51.28;27.80;;;;;;;9.01;75.43;101746.91;5041781;28;20141;-65
2021/11/12 09:41:46;;;;;;;51.17;25.88;;;;;;;8.96;75.94;101736.34;5039714;28;20102;-64
2021/11/12 09:44:12;;;;;;;54.50;26.77;;;;;;;8.87;74.11;101730.94;5043102;28;20092;-65
2021/11/12 09:46:38;;;;;;;54.13;25.75;;;;;;;9.00;77.25;101733.75;5043219;28;20037;-65
2021/11/12 09:49:04;;;;;;;54.03;26.48;;;;;;;8.90;74.99;101733.63;5043193;28;20026;-66
2021/11/12 09:51:30;;;;;;;54.00;26.02;;;;;;;8.78;75.27;101729.00;5041282;28;20025;-65
2021/11/12 09:53:55;;;;;;;52.58;26.38;;;;;;;8.75;74.31;101728.03;5043534;28;20061;-65
2021/11/12 09:56:21;;;;;;;58.03;27.20;;;;;;;8.62;75.88;101734.81;5045327;28;20040;-64
2021/11/12 09:58:50;;;;;;;52.70;26.80;;;;;;;8.56;75.52;101722.47;5042471;28;20083;-64
2021/11/12 10:01:17;;;;;;;52.90;26.77;;;;;;;8.55;76.68;101718.06;5042313;28;20030;-65
2021/11/12 10:03:45;;;;;;;54.88;27.05;;;;;;;8.67;76.73;101717.41;5040402;28;20029;-64
2021/11/12 10:06:22;;;;;;;60.38;26.92;;;;;;;8.71;75.75;101715.75;5042885;28;20045;-64
2021/11/12 10:08:48;;;;;;;52.50;25.17;;;;;;;8.78;75.03;101715.88;5044699;28;20022;-64
2021/11/12 10:11:33;;;;;;;59.42;27.63;;;;;;;8.74;75.36;101706.22;5038696;28;20025;-65
2021/11/12 10:14:01;;;;;;;58.95;28.20;;;;;;;8.83;75.72;101709.84;5029423;28;20499;-64
2021/11/12 10:16:35;;;;;;;53.65;26.75;;;;;;;8.85;74.53;101703.81;5040867;28;20033;-64
2021/11/12 10:19:15;;;;;;;54.55;26.35;;;;;;;8.86;74.29;101697.69;5039901;28;20037;-65
2021/11/12 10:21:46;;;;;;;49.20;23.95;;;;;;;8.89;75.03;101697.75;5041246;28;20168;-65
2021/11/12 10:24:27;;;;;;;51.88;26.35;;;;;;;9.02;74.26;101690.09;5042197;28;20045;-64
2021/11/12 10:27:14;;;;;;;49.88;25.05;;;;;;;9.10;74.14;101683.28;5042896;28;20053;-64
2021/11/12 10:29:46;;;;;;;44.40;24.27;;;;;;;9.12;72.97;101686.81;5028150;28;20585;-65
2021/11/12 10:32:17;;;;;;;53.33;25.55;;;;;;;9.08;74.05;101685.88;5039537;28;20071;-65
2021/11/12 10:34:43;;;;;;;53.05;26.63;;;;;;;9.08;73.44;101677.13;5035793;28;20438;-64
2021/11/12 10:37:20;;;;;;;48.70;25.00;;;;;;;9.05;73.58;101675.31;5040102;28;20182;-64
2021/11/12 10:39:49;;;;;;;43.60;21.98;;;;;;;9.22;74.45;101672.13;5036348;28;20057;-65
2021/11/12 10:42:20;;;;;;;42.42;22.85;;;;;;;9.29;73.01;101661.75;5039694;28;20050;-65
2021/11/12 10:44:50;;;;;;;46.58;23.02;;;;;;;9.34;73.02;101662.72;5040256;28;20031;-65
2021/11/12 10:47:17;;;;;;;43.55;23.42;;;;;;;9.49;72.33;101661.19;5038406;28;20034;-65
2021/11/12 10:49:48;;;;;;;40.03;22.17;;;;;;;9.66;73.82;101651.84;5042844;28;20037;-65
2021/11/12 10:52:21;;;;;;;43.33;24.08;;;;;;;9.63;72.02;101643.06;5043983;28;20347;-65
2021/11/12 10:54:53;;;;;;;39.97;21.85;;;;;;;9.70;71.98;101637.91;5042791;28;20071;-65
2021/11/12 10:57:29;;;;;;;39.75;20.50;;;;;;;9.89;73.74;101623.31;5043794;28;20120;-66
2021/11/12 10:59:58;;;;;;;36.53;20.63;;;;;;;9.95;70.84;101625.13;5044209;28;20041;-67
2021/11/12 11:02:34;;;;;;;43.83;22.15;;;;;;;10.10;70.37;101620.09;5042510;28;20037;-65
2021/11/12 11:05:12;;;;;;;40.65;20.65;;;;;;;10.13;70.94;101609.63;5046708;28;20052;-66
2021/11/12 11:07:39;;;;;;;35.10;20.52;;;;;;;10.13;71.08;101607.00;5046822;28;20037;-66
2021/11/12 11:10:17;;;;;;;37.20;19.73;;;;;;;10.29;70.26;101605.44;5046182;28;20033;-70
2021/11/12 11:12:44;;;;;;;35.05;20.25;;;;;;;10.17;68.99;101602.66;5045884;28;20030;-70
2021/11/12 11:15:18;;;;;;;34.72;19.65;;;;;;;10.08;69.54;101599.94;5046209;28;20079;-70
2021/11/12 11:17:49;;;;;;;32.40;19.35;;;;;;;10.14;70.87;101600.88;5045084;28;20048;-66
2021/11/12 11:20:20;;;;;;;33.55;19.95;;;;;;;10.24;70.86;101575.59;5046452;28;20056;-66
2021/11/12 11:22:56;;;;;;;35.50;19.23;;;;;;;10.29;69.85;101576.53;5045899;28;20056;-70
2021/11/12 11:25:24;;;;;;;35.13;18.88;;;;;;;10.21;70.88;101572.94;5045856;28;20137;-75
2021/11/12 11:27:52;;;;;;;37.42;17.48;;;;;;;10.29;69.61;101567.78;5044461;28;20056;-66
2021/11/12 11:30:17;;;;;;;31.92;17.38;;;;;;;10.33;69.41;101556.47;5045813;28;20052;-67
2021/11/12 11:32:45;;;;;;;34.67;17.92;;;;;;;10.36;70.19;101560.88;5046583;28;20160;-67
2021/11/12 11:35:11;;;;;;;31.73;18.08;;;;;;;10.39;69.21;101548.66;5046012;28;20152;-70
2021/11/12 11:37:38;;;;;;;30.63;18.33;;;;;;;10.45;69.76;101540.84;5046153;28;20021;-67
2021/11/12 11:40:06;;;;;;;37.90;18.80;;;;;;;10.52;69.80;101540.03;5044253;28;20021;-70
2021/11/12 11:42:32;;;;;;;30.17;18.92;;;;;;;10.51;69.00;101547.91;5045970;28;20060;-66
2021/11/12 11:44:58;;;;;;;40.50;19.27;;;;;;;10.38;69.84;101543.38;5045377;28;20033;-66
2021/11/12 11:47:25;;;;;;;38.20;19.48;;;;;;;10.42;69.97;101529.44;5042374;28;20033;-69
2021/11/12 11:49:53;;;;;;;33.85;19.10;;;;;;;10.39;69.15;101521.50;5027097;28;20034;-66
2021/11/12 11:52:27;;;;;;;32.08;17.48;;;;;;;10.51;70.42;101532.16;5044936;28;20030;-67
2021/11/12 11:54:53;;;;;;;31.60;17.58;;;;;;;10.51;69.53;101526.88;5044943;28;20097;-67
2021/11/12 11:57:22;;;;;;;30.30;17.58;;;;;;;10.42;70.14;101517.16;5044608;28;20112;-68
2021/11/12 11:59:49;;;;;;;27.45;17.00;;;;;;;10.47;70.15;101523.34;5042832;28;20119;-64
2021/11/12 12:02:20;;;;;;;36.97;18.38;;;;;;;10.36;69.27;101516.19;5043266;28;20040;-64
2021/11/12 12:04:59;;;;;;;31.35;18.48;;;;;;;10.17;70.24;101515.09;5044197;28;20028;-63
2021/11/12 12:07:30;;;;;;;30.63;18.63;;;;;;;10.31;70.16;101500.41;5038310;28;20026;-64
2021/11/12 12:10:12;;;;;;;35.58;19.30;;;;;;;10.28;70.30;101495.09;5033704;28;20034;-64
2021/11/12 12:12:39;;;;;;;29.23;18.23;;;;;;;10.24;70.42;101493.28;5044669;28;20041;-64
2021/11/12 12:15:05;;;;;;;30.08;17.40;;;;;;;10.30;70.24;101499.53;5045363;28;20140;-64
2021/11/12 12:17:33;;;;;;;28.85;17.08;;;;;;;10.38;70.58;101497.00;5041385;28;20501;-64
2021/11/12 13:25:35;;;;;;;20.65;10.60;;;;;;;10.94;65.66;101361.59;5038036;28;20136;-64
2021/11/12 13:28:10;;;;;;;;;;;;;;;10.93;65.35;101368.59;5044160;28;20037;-64
2021/11/12 13:30:36;;;;;;;22.70;10.73;;;;;;;10.95;64.77;101367.75;5044048;28;19917;-64
2021/11/12 13:33:03;;;;;;;21.05;11.35;;;;;;;11.01;66.38;101352.00;5044397;28;20124;-63
2021/11/12 13:35:34;;;;;;;22.13;10.43;;;;;;;11.08;65.98;101345.88;5043469;28;20044;-64
2021/11/12 13:37:59;;;;;;;18.70;10.70;;;;;;;11.08;65.25;101335.38;5043740;28;20059;-63
2021/11/12 13:40:33;;;;;;;19.42;11.38;;;;;;;11.17;64.67;101338.03;5041810;28;20049;-64
2021/11/12 13:42:59;;;;;;;19.48;10.63;;;;;;;11.21;66.51;101329.28;5043505;28;20112;-62
2021/11/12 13:45:27;;;;;;;18.17;10.02;;;;;;;11.29;65.53;101326.69;5042730;28;20034;-64
2021/11/12 13:48:09;;;;;;;19.52;10.52;;;;;;;11.38;63.15;101315.28;5042908;28;20033;-64
2021/11/12 13:51:02;;;;;;;15.85;10.05;;;;;;;11.35;64.21;101318.78;5043656;28;20052;-63
2021/11/12 13:53:30;;;;;;;25.75;11.02;;;;;;;11.28;63.52;101324.91;5043176;28;20029;-64
2021/11/12 13:55:56;;;;;;;22.77;10.27;;;;;;;11.31;64.15;101323.16;5043902;28;20071;-65
2021/11/12 13:58:24;;;;;;;17.77;9.98;;;;;;;11.38;64.55;101338.97;5042854;28;20182;-65
2021/11/12 14:00:51;;;;;;;17.67;10.45;;;;;;;11.25;64.09;101324.91;5037641;28;20029;-64
2021/11/12 14:03:19;;;;;;;24.80;11.27;;;;;;;11.20;63.50;101322.25;5043399;28;20064;-64
2021/11/12 14:05:58;;;;;;;16.55;10.13;;;;;;;11.24;64.95;101329.28;5034049;28;21240;-64
2021/11/12 14:08:35;;;;;;;18.75;9.85;;;;;;;11.19;65.79;101328.41;5034240;28;20038;-64
2021/11/12 14:11:02;;;;;;;17.13;10.38;;;;;;;11.14;64.31;101322.25;5043911;28;20104;-63
2021/11/12 14:13:36;;;;;;;17.02;9.68;;;;;;;11.11;64.56;101311.69;5042893;28;20044;-64
2021/11/12 14:16:25;;;;;;;18.10;9.57;;;;;;;11.17;64.76;101310.84;5040760;28;20029;-64
2021/11/12 14:19:39;;;;;;;13.80;9.07;;;;;;;11.15;63.82;101302.94;5032030;28;20030;-64
2021/11/12 14:22:10;;;;;;;16.23;9.68;;;;;;;11.22;64.82;101298.59;5040945;28;20131;-63
2021/11/12 14:27:32;;;;;;;16.13;8.98;;;;;;;11.20;65.49;101295.06;5053135;28;20465;-64
2021/11/12 14:45:56;;;;;;;14.70;8.23;;;;;;;11.02;64.81;101290.63;5043574;28;20041;-65
2021/11/12 14:48:34;;;;;;;18.65;8.55;;;;;;;10.99;65.20;101291.50;5043425;28;20057;-65
2021/11/12 14:51:12;;;;;;;17.23;8.50;;;;;;;10.91;64.71;101290.59;5036223;28;20061;-64
2021/11/12 14:53:50;;;;;;;15.57;7.82;;;;;;;10.89;65.75;101277.44;5042593;28;20707;-64
2021/11/12 14:58:55;;;;;;;15.95;8.52;;;;;;;10.88;65.20;101280.94;5042484;28;20039;-64
2021/11/12 15:01:26;;;;;;;15.32;8.65;;;;;;;10.93;64.73;101280.97;5043002;28;20021;-65
2021/11/12 15:03:53;;;;;;;13.75;7.53;;;;;;;10.97;65.74;101280.09;5040865;28;20033;-64
2021/11/12 15:06:23;;;;;;;13.90;8.70;;;;;;;10.99;64.33;101278.34;5042067;28;20582;-64
2021/11/12 15:08:57;;;;;;;14.10;8.48;;;;;;;10.87;64.89;101263.41;5042047;28;20041;-64
2021/11/12 15:11:27;;;;;;;12.75;8.57;;;;;;;10.77;64.51;101256.34;5041625;28;20041;-63
2021/11/12 15:14:02;;;;;;;18.85;8.43;;;;;;;10.77;64.47;101250.22;5041469;28;20057;-64
2021/11/12 15:16:27;;;;;;;17.50;7.97;;;;;;;10.75;65.10;101263.34;5038709;28;20052;-64
2021/11/12 15:18:57;;;;;;;12.95;8.00;;;;;;;10.79;64.68;101264.25;5039708;28;20042;-64
2021/11/12 15:21:36;;;;;;;13.55;8.55;;;;;;;10.74;65.17;101272.13;5040440;28;20453;-65
2021/11/12 15:31:35;;;;;;;14.50;8.98;;;;;;;10.77;64.76;101256.34;5036300;28;20026;-64
2021/11/12 15:34:06;;;;;;;14.07;8.82;;;;;;;10.83;65.24;101243.25;5040733;28;20120;-64
2021/11/12 15:36:33;;;;;;;15.05;9.45;;;;;;;10.84;65.05;101242.34;5037013;28;20144;-64
2021/11/12 15:39:10;;;;;;;18.50;9.57;;;;;;;10.86;66.48;101240.59;5033018;28;20041;-64
2021/11/12 15:46:53;;;;;;;12.88;8.73;;;;;;;10.82;64.94;101238.84;5040512;28;20045;-64
2021/11/12 15:49:21;;;;;;;16.77;8.75;;;;;;;10.79;64.76;101233.56;5029425;28;20132;-66
2021/11/12 15:51:55;;;;;;;17.05;8.50;;;;;;;10.78;65.11;101230.97;5028607;28;20033;-65
2021/11/12 15:59:49;;;;;;;15.52;9.10;;;;;;;10.65;66.04;101223.00;5033667;28;20088;-64
2021/11/12 16:15:19;;;;;;;17.92;9.68;;;;;;;10.63;66.06;101221.25;5038893;28;20506;-65
2021/11/12 16:17:49;;;;;;;13.52;9.30;;;;;;;10.62;66.52;101224.75;5037368;28;20033;-65
2021/11/12 16:27:37;;;;;;;13.75;7.88;;;;;;;10.69;67.30;101213.41;5041394;28;20026;-64
2021/11/12 16:30:06;;;;;;;14.85;9.05;;;;;;;10.63;65.55;101210.75;5027884;28;20037;-64
2021/11/12 16:32:46;;;;;;;16.63;9.50;;;;;;;10.63;65.98;101209.00;5038480;28;20026;-65
2021/11/12 16:35:19;;;;;;;13.23;8.85;;;;;;;10.66;66.11;101208.13;5037767;28;20106;-65
2021/11/12 16:37:46;;;;;;;14.93;8.50;;;;;;;10.69;66.08;101209.00;5043754;28;20014;-65
2021/11/12 16:45:32;;;;;;;15.70;8.80;;;;;;;10.75;66.68;101202.91;5041525;28;20041;-68
2021/11/12 16:58:40;;;;;;;18.58;8.95;;;;;;;10.54;67.96;101182.69;5039961;28;20060;-61
2021/11/12 17:04:27;;;;;;;16.15;8.80;;;;;;;10.42;68.49;101180.00;5034421;28;20117;-67
2021/11/12 17:16:53;;;;;;;14.60;9.23;;;;;;;10.69;69.27;101182.72;5035588;28;20054;-72
2021/11/12 17:49:10;;;;;;;15.20;10.23;;;;;;;10.39;68.08;101165.09;5037274;28;20034;-68
2021/11/12 17:51:48;;;;;;;14.13;9.73;;;;;;;10.38;68.92;101165.97;5040770;28;20082;-68
2021/11/12 18:02:34;;;;;;;16.83;10.57;;;;;;;10.25;69.15;101153.63;5039266;28;20062;-69